Time;durP1;ratioP1;P1;durP2;ratioP2;P2;SDS_P1;SDS_P2;PMS_P1;PMS_P2;Temp;Humidity;BMP_temperature;BMP_pressure;BME280_temperature;BME280_humidity;BME280_pressure;Samples;Min_cycle;Max_cycle;Signal;HPM_P1;HPM_P2
2022/01/15 00:00:36;;;;;;;54.72;19.92;;;;;;;;;;5021206;28;20061;-65
2022/01/15 00:03:03;;;;;;;59.87;21.70;;;;;;;;;;5015841;28;20708;-65
2022/01/15 00:05:31;;;;;;;53.78;20.77;;;;;;;;;;5020413;28;20508;-65
2022/01/15 00:07:57;;;;;;;56.50;21.15;;;;;;;;;;5015355;28;20702;-65
2022/01/15 00:10:28;;;;;;;56.22;19.40;;;;;;;;;;5027536;28;20049;-65
2022/01/15 00:12:58;;;;;;;59.53;20.27;;;;;;;;;;5013334;28;20566;-65
2022/01/15 00:15:49;;;;;;;47.70;19.63;;;;;;;;;;5024663;28;20270;-65
2022/01/15 00:18:16;;;;;;;58.55;19.58;;;;;;;;;;5005830;28;20490;-65
2022/01/15 00:20:42;;;;;;;46.90;16.80;;;;;;;;;;5024898;28;20049;-65
2022/01/15 00:23:08;;;;;;;46.15;17.52;;;;;;;;;;5019962;28;20616;-65
2022/01/15 00:25:35;;;;;;;53.58;19.08;;;;;;;;;;5016925;28;20045;-65
2022/01/15 00:28:01;;;;;;;52.83;19.48;;;;;;;;;;5022536;28;20052;-65
2022/01/15 00:30:28;;;;;;;48.85;17.90;;;;;;;;;;5010592;28;20055;-65
2022/01/15 00:32:54;;;;;;;47.17;18.10;;;;;;;;;;5016576;28;20377;-65
2022/01/15 00:35:24;;;;;;;54.10;19.33;;;;;;;;;;5014072;28;20056;-65
2022/01/15 00:37:50;;;;;;;49.97;18.75;;;;;;;;;;5039654;28;20037;-65
2022/01/15 00:40:18;;;;;;;57.17;19.50;;;;;;;;;;5022933;28;20068;-65
2022/01/15 00:42:45;;;;;;;49.45;19.00;;;;;;;;;;5018996;28;20187;-66
2022/01/15 00:45:14;;;;;;;43.25;16.30;;;;;;;;;;5019270;28;20419;-65
2022/01/15 00:47:40;;;;;;;44.60;18.05;;;;;;;;;;5017474;28;20060;-65
2022/01/15 00:50:07;;;;;;;46.72;17.13;;;;;;;;;;5022936;28;20061;-65
2022/01/15 00:52:34;;;;;;;51.47;18.50;;;;;;;;;;5025585;28;20057;-65
2022/01/15 00:55:00;;;;;;;42.13;16.70;;;;;;;;;;5013406;28;20054;-66
2022/01/15 00:57:27;;;;;;;47.47;18.13;;;;;;;;;;5032537;28;20058;-66
2022/01/15 00:59:53;;;;;;;50.53;18.27;;;;;;;;;;5007574;28;20493;-65
2022/01/15 01:02:19;;;;;;;48.55;17.85;;;;;;;;;;5021537;28;20431;-65
2022/01/15 01:04:46;;;;;;;47.80;17.08;;;;;;;;;;5012186;28;20037;-66
2022/01/15 01:07:12;;;;;;;45.25;16.40;;;;;;;;;;5020575;28;20077;-66
2022/01/15 01:10:47;;;;;;;49.15;16.33;;;;;;;;;;5020832;28;20482;-66
2022/01/15 01:23:05;;;;;;;44.55;15.55;;;;;;;;;;5019293;28;20049;-66
2022/01/15 01:25:38;;;;;;;38.88;14.35;;;;;;;;;;5020892;28;20630;-66
2022/01/15 01:28:16;;;;;;;50.05;16.50;;;;;;;;;;5013990;28;20049;-67
2022/01/15 01:30:53;;;;;;;44.40;16.00;;;;;;;;;;5015899;28;20472;-66
2022/01/15 01:36:13;;;;;;;38.70;14.43;;;;;;;;;;5020424;28;20076;-66
2022/01/15 01:41:17;;;;;;;38.80;14.70;;;;;;;;;;5009565;28;20049;-66
2022/01/15 01:43:48;;;;;;;38.25;13.20;;;;;;;;;;5020727;28;20056;-66
2022/01/15 01:46:35;;;;;;;35.53;12.07;;;;;;;;;;5013061;28;20049;-68
2022/01/15 01:49:03;;;;;;;35.10;13.40;;;;;;;;;;5028457;28;20042;-66
2022/01/15 01:51:31;;;;;;;39.28;13.68;;;;;;;;;;5011612;28;20049;-66
2022/01/15 01:53:58;;;;;;;33.83;12.75;;;;;;;;;;5015843;28;20159;-65
2022/01/15 01:56:25;;;;;;;36.70;12.95;;;;;;;;;;5005435;28;20488;-66
2022/01/15 01:58:51;;;;;;;35.53;12.70;;;;;;;;;;5024611;28;20591;-66
2022/01/15 02:01:17;;;;;;;28.55;11.15;;;;;;;;;;5020433;28;20149;-66
2022/01/15 02:03:44;;;;;;;38.67;13.27;;;;;;;;;;5012987;28;20057;-66
2022/01/15 02:06:11;;;;;;;31.67;11.70;;;;;;;;;;5028162;28;20605;-66
2022/01/15 02:08:38;;;;;;;31.00;11.32;;;;;;;;;;5011009;28;20414;-66
2022/01/15 02:11:05;;;;;;;33.67;12.05;;;;;;;;;;5019726;28;20060;-66
2022/01/15 02:13:33;;;;;;;32.78;11.27;;;;;;;;;;5014274;28;20060;-66
2022/01/15 02:16:00;;;;;;;34.97;11.65;;;;;;;;;;5010497;28;20056;-66
2022/01/15 02:18:27;;;;;;;33.75;11.07;;;;;;;;;;5021490;28;20046;-66
2022/01/15 02:23:51;;;;;;;27.55;9.93;;;;;;;;;;4972889;28;20057;-66
2022/01/15 02:26:23;;;;;;;28.02;11.05;;;;;;;;;;5010815;28;20049;-66
2022/01/15 02:28:54;;;;;;;28.38;11.23;;;;;;;;;;5021936;28;20048;-66
2022/01/15 02:31:21;;;;;;;25.52;10.25;;;;;;;;;;5017735;28;20821;-66
2022/01/15 02:33:48;;;;;;;29.75;10.85;;;;;;;;;;5016078;28;20751;-65
2022/01/15 02:36:16;;;;;;;27.67;11.02;;;;;;;;;;5018939;28;20060;-65
2022/01/15 02:38:43;;;;;;;31.10;11.10;;;;;;;;;;5009688;28;20485;-65
2022/01/15 02:41:09;;;;;;;25.55;9.75;;;;;;;;;;5028370;28;20083;-65
2022/01/15 02:43:36;;;;;;;24.63;8.82;;;;;;;;;;5014818;28;20077;-66
2022/01/15 02:46:20;;;;;;;26.48;10.35;;;;;;;;;;5026125;28;20069;-65
2022/01/15 02:48:51;;;;;;;26.33;10.20;;;;;;;;;;5016934;28;20048;-65
2022/01/15 02:51:18;;;;;;;30.52;11.27;;;;;;;;;;5021321;28;20392;-65
2022/01/15 02:53:46;;;;;;;31.98;12.07;;;;;;;;;;5011883;28;20485;-65
2022/01/15 02:56:12;;;;;;;30.73;11.70;;;;;;;;;;5024935;28;20055;-66
2022/01/15 02:58:39;;;;;;;32.60;12.25;;;;;;;;;;5027131;28;20129;-65
2022/01/15 03:01:06;;;;;;;37.00;12.95;;;;;;;;;;5009477;28;20414;-66
2022/01/15 03:03:34;;;;;;;35.35;12.38;;;;;;;;;;5031643;28;20493;-66
2022/01/15 03:06:01;;;;;;;32.95;12.18;;;;;;;;;;5011733;28;20049;-66
2022/01/15 03:08:28;;;;;;;32.70;12.05;;;;;;;;;;5025173;28;20402;-66
2022/01/15 03:10:54;;;;;;;29.10;10.27;;;;;;;;;;5018985;28;20045;-66
2022/01/15 03:13:21;;;;;;;30.55;11.13;;;;;;;;;;5029716;28;20508;-66
2022/01/15 03:15:47;;;;;;;29.77;11.75;;;;;;;;;;5024845;28;20044;-65
2022/01/15 03:18:13;;;;;;;33.83;10.75;;;;;;;;;;5017212;28;20057;-66
2022/01/15 03:20:40;;;;;;;33.33;11.73;;;;;;;;;;5017291;28;20053;-65
2022/01/15 03:23:06;;;;;;;31.55;12.50;;;;;;;;;;5024558;28;20365;-66
2022/01/15 03:25:32;;;;;;;32.95;12.40;;;;;;;;;;5024270;28;20053;-65
2022/01/15 03:27:58;;;;;;;36.08;12.63;;;;;;;;;;5026455;28;20549;-65
2022/01/15 03:30:25;;;;;;;31.98;11.35;;;;;;;;;;5018193;28;20048;-65
2022/01/15 03:32:51;;;;;;;31.98;11.65;;;;;;;;;;5024479;28;20505;-65
2022/01/15 03:35:18;;;;;;;32.80;11.77;;;;;;;;;;5014185;28;20596;-65
2022/01/15 03:37:45;;;;;;;31.27;11.38;;;;;;;;;;5021924;28;20053;-65
2022/01/15 03:40:12;;;;;;;25.73;10.07;;;;;;;;;;5017420;28;20308;-65
2022/01/15 03:42:39;;;;;;;23.50;9.45;;;;;;;;;;5022648;28;20072;-65
2022/01/15 03:45:05;;;;;;;20.83;8.77;;;;;;;;;;5009773;28;20048;-65
2022/01/15 03:47:32;;;;;;;23.65;9.13;;;;;;;;;;5008030;28;20436;-66
2022/01/15 03:49:58;;;;;;;24.23;8.93;;;;;;;;;;5024091;28;20227;-66
2022/01/15 03:52:25;;;;;;;18.70;7.60;;;;;;;;;;5012579;28;20045;-66
2022/01/15 03:54:51;;;;;;;18.63;7.95;;;;;;;;;;5019846;28;20380;-66
2022/01/15 03:57:19;;;;;;;19.33;8.18;;;;;;;;;;5017328;28;20053;-66
2022/01/15 03:59:45;;;;;;;27.25;8.35;;;;;;;;;;5031361;28;20402;-65
2022/01/15 04:02:12;;;;;;;18.08;7.85;;;;;;;;;;5016243;28;20041;-65
2022/01/15 04:04:38;;;;;;;23.00;9.30;;;;;;;;;;5016503;28;20532;-65
2022/01/15 04:07:05;;;;;;;19.75;9.05;;;;;;;;;;5026193;28;20103;-65
2022/01/15 04:09:32;;;;;;;22.05;9.75;;;;;;;;;;5019516;28;20080;-65
2022/01/15 04:11:58;;;;;;;23.45;10.73;;;;;;;;;;5027396;28;20049;-65
2022/01/15 04:14:24;;;;;;;22.20;10.23;;;;;;;;;;5017960;28;20047;-65
2022/01/15 04:16:51;;;;;;;25.48;11.50;;;;;;;;;;5019940;28;20049;-65
2022/01/15 04:19:17;;;;;;;27.73;10.88;;;;;;;;;;5024076;28;21109;-65
2022/01/15 04:21:43;;;;;;;26.42;10.70;;;;;;;;;;5022162;28;20056;-65
2022/01/15 04:24:10;;;;;;;27.58;12.88;;;;;;;;;;5024274;28;20398;-65
2022/01/15 04:26:36;;;;;;;24.65;11.05;;;;;;;;;;5021455;28;20829;-65
2022/01/15 04:29:05;;;;;;;29.98;12.38;;;;;;;;;;5017164;28;20053;-67
2022/01/15 04:31:46;;;;;;;24.90;11.95;;;;;;;;;;5010507;28;20045;-67
2022/01/15 04:34:17;;;;;;;27.80;12.35;;;;;;;;;;5018698;28;20052;-67
2022/01/15 04:36:44;;;;;;;32.70;14.57;;;;;;;;;;5027366;28;20049;-67
2022/01/15 04:39:11;;;;;;;31.40;14.85;;;;;;;;;;5012058;28;20049;-67
2022/01/15 04:41:37;;;;;;;32.60;14.88;;;;;;;;;;5028618;28;20056;-67
2022/01/15 04:44:04;;;;;;;31.42;14.60;;;;;;;;;;4994765;28;20068;-67
2022/01/15 04:46:31;;;;;;;33.00;14.30;;;;;;;;;;5022863;28;20456;-67
2022/01/15 04:48:58;;;;;;;29.90;13.75;;;;;;;;;;5022617;28;20111;-65
2022/01/15 04:51:24;;;;;;;29.33;13.60;;;;;;;;;;5016835;28;20328;-65
2022/01/15 04:53:51;;;;;;;27.63;13.55;;;;;;;;;;5026275;28;20054;-65
2022/01/15 04:56:17;;;;;;;27.00;13.77;;;;;;;;;;5014163;28;20502;-67
2022/01/15 04:58:43;;;;;;;29.88;13.40;;;;;;;;;;5019445;28;20052;-67
2022/01/15 05:01:10;;;;;;;27.33;12.90;;;;;;;;;;5017663;28;20049;-67
2022/01/15 05:03:36;;;;;;;25.75;12.82;;;;;;;;;;5021957;28;20053;-67
2022/01/15 05:06:03;;;;;;;27.35;12.38;;;;;;;;;;5024958;28;20045;-67
2022/01/15 05:08:29;;;;;;;32.08;15.07;;;;;;;;;;5023614;28;20059;-67
2022/01/15 05:10:59;;;;;;;26.98;12.48;;;;;;;;;;5012453;28;20041;-64
2022/01/15 05:13:29;;;;;;;30.33;14.98;;;;;;;;;;5018152;28;20499;-67
2022/01/15 05:15:55;;;;;;;34.25;16.55;;;;;;;;;;5023343;28;20050;-67
2022/01/15 05:18:22;;;;;;;36.33;15.00;;;;;;;;;;5024743;28;20048;-67
2022/01/15 05:20:49;;;;;;;37.58;16.05;;;;;;;;;;5020061;28;20053;-67
2022/01/15 05:23:15;;;;;;;32.20;13.32;;;;;;;;;;5020216;28;20045;-67
2022/01/15 05:25:41;;;;;;;31.33;14.68;;;;;;;;;;5008988;28;20045;-67
2022/01/15 05:28:08;;;;;;;34.47;15.25;;;;;;;;;;5018608;28;20040;-67
2022/01/15 05:30:34;;;;;;;30.20;13.57;;;;;;;;;;5014633;28;20043;-67
2022/01/15 05:33:01;;;;;;;30.10;14.63;;;;;;;;;;5025245;28;20473;-67
2022/01/15 05:35:27;;;;;;;24.15;12.13;;;;;;;;;;5022732;28;20056;-67
2022/01/15 05:37:55;;;;;;;29.88;14.55;;;;;;;;;;5011398;28;20489;-67
2022/01/15 05:40:22;;;;;;;33.83;14.00;;;;;;;;;;5014888;28;20072;-67
2022/01/15 05:42:49;;;;;;;27.85;14.07;;;;;;;;;;5011537;28;20073;-65
2022/01/15 05:45:15;;;;;;;32.72;15.13;;;;;;;;;;5024522;28;20247;-65
2022/01/15 05:47:41;;;;;;;35.13;14.40;;;;;;;;;;5011359;28;20154;-65
2022/01/15 05:50:08;;;;;;;28.00;12.88;;;;;;;;;;5029137;28;20417;-67
2022/01/15 05:52:35;;;;;;;27.88;13.23;;;;;;;;;;5018557;28;20049;-67
2022/01/15 05:55:01;;;;;;;26.38;12.85;;;;;;;;;;5012994;28;20049;-67
2022/01/15 05:57:27;;;;;;;24.73;11.55;;;;;;;;;;5022686;28;20456;-67
2022/01/15 05:59:54;;;;;;;31.50;14.27;;;;;;;;;;5015239;28;20056;-67
2022/01/15 06:02:20;;;;;;;27.35;12.05;;;;;;;;;;5019164;28;20092;-65
2022/01/15 06:04:47;;;;;;;32.17;13.10;;;;;;;;;;5014650;28;20048;-65
2022/01/15 06:07:14;;;;;;;34.15;12.60;;;;;;;;;;5014299;28;20277;-66
2022/01/15 06:09:40;;;;;;;36.17;14.00;;;;;;;;;;5027178;28;20053;-65
2022/01/15 06:12:07;;;;;;;31.45;14.65;;;;;;;;;;5014736;28;20381;-65
2022/01/15 06:14:36;;;;;;;35.55;14.30;;;;;;;;;;5027239;28;20103;-67
2022/01/15 06:17:04;;;;;;;38.95;14.10;;;;;;;;;;5019784;28;20045;-65
2022/01/15 06:19:30;;;;;;;35.80;15.18;;;;;;;;;;5020849;28;20502;-65
2022/01/15 06:21:57;;;;;;;36.10;16.55;;;;;;;;;;5012973;28;20046;-65
2022/01/15 06:24:23;;;;;;;40.88;16.65;;;;;;;;;;5025307;28;20046;-65
2022/01/15 06:26:49;;;;;;;41.03;15.15;;;;;;;;;;5031863;28;20103;-65
2022/01/15 06:29:15;;;;;;;47.78;17.63;;;;;;;;;;5016924;28;20056;-65
2022/01/15 06:31:42;;;;;;;48.95;16.77;;;;;;;;;;4992256;28;20049;-67
2022/01/15 06:34:08;;;;;;;47.72;17.48;;;;;;;;;;5015399;28;20314;-67
2022/01/15 06:36:34;;;;;;;39.90;16.27;;;;;;;;;;5022527;28;20154;-68
2022/01/15 06:39:01;;;;;;;49.15;18.17;;;;;;;;;;5015467;28;20067;-67
2022/01/15 06:41:27;;;;;;;42.53;16.10;;;;;;;;;;5027858;28;20041;-67
2022/01/15 06:43:53;;;;;;;52.40;17.48;;;;;;;;;;5023535;28;20049;-67
2022/01/15 06:46:20;;;;;;;38.95;15.48;;;;;;;;;;5021063;28;20049;-67
2022/01/15 06:48:46;;;;;;;52.80;18.42;;;;;;;;;;5018685;28;20542;-67
2022/01/15 06:51:13;;;;;;;69.65;18.63;;;;;;;;;;5015409;28;20512;-67
2022/01/15 06:53:39;;;;;;;56.70;17.90;;;;;;;;;;5023776;28;20060;-67
2022/01/15 06:56:05;;;;;;;46.90;17.98;;;;;;;;;;5029044;28;20475;-67
2022/01/15 06:58:32;;;;;;;47.42;16.73;;;;;;;;;;5018367;28;20297;-67
2022/01/15 07:00:58;;;;;;;56.30;17.65;;;;;;;;;;5022848;28;20049;-67
2022/01/15 07:03:24;;;;;;;52.50;19.52;;;;;;;;;;5020054;28;20045;-67
2022/01/15 07:05:51;;;;;;;60.78;18.27;;;;;;;;;;5027662;28;20049;-66
2022/01/15 07:08:17;;;;;;;43.13;18.83;;;;;;;;;;5022764;28;20053;-67
2022/01/15 07:10:43;;;;;;;45.13;19.40;;;;;;;;;;5024352;28;20053;-67
2022/01/15 07:13:10;;;;;;;54.88;18.92;;;;;;;;;;5034200;28;20055;-67
2022/01/15 07:15:36;;;;;;;47.55;19.83;;;;;;;;;;5012868;28;20426;-66
2022/01/15 07:18:03;;;;;;;45.70;18.33;;;;;;;;;;5024834;28;20262;-67
2022/01/15 07:20:29;;;;;;;44.70;18.00;;;;;;;;;;5014616;28;20042;-67
2022/01/15 07:22:55;;;;;;;53.92;20.80;;;;;;;;;;5031404;28;20461;-67
2022/01/15 07:25:22;;;;;;;55.55;20.85;;;;;;;;;;5026811;28;20053;-66
2022/01/15 07:27:48;;;;;;;48.10;20.33;;;;;;;;;;5014750;28;20546;-67
2022/01/15 07:30:14;;;;;;;52.38;20.45;;;;;;;;;;5023024;28;20282;-67
2022/01/15 07:32:42;;;;;;;43.42;18.70;;;;;;;;;;4994898;28;20415;-67
2022/01/15 07:35:14;;;;;;;57.17;20.35;;;;;;;;;;5027091;28;20049;-67
2022/01/15 07:37:40;;;;;;;49.08;18.55;;;;;;;;;;5017743;28;20057;-67
2022/01/15 07:40:07;;;;;;;46.17;17.55;;;;;;;;;;5030619;28;20273;-66
2022/01/15 07:42:37;;;;;;;49.53;19.65;;;;;;;;;;5001939;28;20071;-66
2022/01/15 07:45:04;;;;;;;48.55;20.55;;;;;;;;;;5016246;28;20045;-66
2022/01/15 07:47:31;;;;;;;44.28;19.17;;;;;;;;;;5025292;28;20049;-66
2022/01/15 07:49:58;;;;;;;62.88;19.95;;;;;;;;;;5023092;28;20045;-67
2022/01/15 07:52:24;;;;;;;48.72;19.30;;;;;;;;;;5021656;28;20057;-67
2022/01/15 07:54:51;;;;;;;61.83;20.40;;;;;;;;;;5017941;28;20905;-67
2022/01/15 07:57:18;;;;;;;55.65;20.25;;;;;;;;;;5021267;28;20115;-67
2022/01/15 07:59:44;;;;;;;66.85;20.92;;;;;;;;;;5019990;28;20049;-67
2022/01/15 08:02:11;;;;;;;62.50;21.23;;;;;;;;;;5016245;28;20068;-67
2022/01/15 08:04:37;;;;;;;61.67;23.05;;;;;;;;;;5027313;28;20049;-67
2022/01/15 08:07:04;;;;;;;53.00;20.50;;;;;;;;;;5015846;28;20045;-67
2022/01/15 08:09:30;;;;;;;64.75;21.15;;;;;;;;;;5027012;28;20080;-67
2022/01/15 08:11:57;;;;;;;58.90;19.45;;;;;;;;;;5014393;28;20277;-67
2022/01/15 08:14:23;;;;;;;59.83;21.23;;;;;;;;;;5023586;28;20049;-67
2022/01/15 08:16:49;;;;;;;57.55;21.30;;;;;;;;;;5026330;28;20067;-67
2022/01/15 08:19:16;;;;;;;54.20;19.55;;;;;;;;;;5015853;28;20045;-66
2022/01/15 08:21:42;;;;;;;68.70;23.58;;;;;;;;;;5026838;28;20092;-66
2022/01/15 08:24:09;;;;;;;65.40;22.27;;;;;;;;;;5010926;28;20311;-66
2022/01/15 08:26:36;;;;;;;67.30;23.10;;;;;;;;;;5021691;28;20408;-66
2022/01/15 08:29:03;;;;;;;76.13;24.38;;;;;;;;;;5013148;28;20506;-66
2022/01/15 08:31:29;;;;;;;90.65;22.55;;;;;;;;;;5028971;28;20048;-67
2022/01/15 08:33:55;;;;;;;64.22;21.27;;;;;;;;;;5023195;28;20046;-66
2022/01/15 08:36:22;;;;;;;67.55;21.55;;;;;;;;;;5019242;28;20041;-66
2022/01/15 08:38:49;;;;;;;78.20;22.58;;;;;;;;;;5021820;28;20051;-67
2022/01/15 08:41:22;;;;;;;59.83;20.45;;;;;;;;;;5013915;28;20104;-67
2022/01/15 08:43:49;;;;;;;92.18;22.73;;;;;;;;;;5020803;28;20060;-66
2022/01/15 08:46:18;;;;;;;55.15;18.85;;;;;;;;;;5016362;28;20049;-67
2022/01/15 08:48:45;;;;;;;65.05;21.10;;;;;;;;;;5025236;28;20049;-66
2022/01/15 08:51:11;;;;;;;57.67;20.98;;;;;;;;;;5023319;28;20053;-67
2022/01/15 08:53:37;;;;;;;70.93;22.17;;;;;;;;;;5010295;28;20044;-66
2022/01/15 08:56:04;;;;;;;79.18;22.90;;;;;;;;;;5023156;28;20750;-66
2022/01/15 08:58:30;;;;;;;105.15;24.13;;;;;;;;;;5015909;28;20052;-67
2022/01/15 09:00:57;;;;;;;50.75;18.80;;;;;;;;;;5026827;28;20044;-67
2022/01/15 09:03:24;;;;;;;49.28;18.73;;;;;;;;;;5030275;28;20486;-66
2022/01/15 09:05:51;;;;;;;78.18;21.17;;;;;;;;;;5012859;28;20235;-66
2022/01/15 09:08:20;;;;;;;54.50;18.75;;;;;;;;;;5025115;28;20049;-67
2022/01/15 09:10:47;;;;;;;84.78;20.45;;;;;;;;;;5029661;28;20049;-66
2022/01/15 09:13:13;;;;;;;56.47;18.15;;;;;;;;;;5030577;28;20045;-67
2022/01/15 09:15:39;;;;;;;67.32;19.13;;;;;;;;;;5011810;28;20052;-67
2022/01/15 09:18:06;;;;;;;49.47;17.38;;;;;;;;;;5029610;28;20056;-66
2022/01/15 09:20:32;;;;;;;70.53;19.30;;;;;;;;;;5019583;28;20513;-67
2022/01/15 09:22:58;;;;;;;63.00;18.67;;;;;;;;;;5017948;28;20130;-67
2022/01/15 09:25:27;;;;;;;61.38;19.40;;;;;;;;;;5021942;28;20054;-67
2022/01/15 09:30:39;;;;;;;59.63;19.50;;;;;;;;;;5018518;28;20045;-67
2022/01/15 09:33:06;;;;;;;62.40;19.58;;;;;;;;;;5017933;28;20055;-67
2022/01/15 09:35:33;;;;;;;56.42;19.35;;;;;;;;;;5016926;28;20538;-67
2022/01/15 09:38:04;;;;;;;71.72;20.05;;;;;;;;;;5025440;28;20081;-66
2022/01/15 09:40:30;;;;;;;50.92;19.02;;;;;;;;;;5013694;28;20117;-66
2022/01/15 09:42:57;;;;;;;73.68;19.77;;;;;;;;;;5026591;28;20045;-66
2022/01/15 09:45:23;;;;;;;69.15;20.58;;;;;;;;;;5018000;28;20040;-66
2022/01/15 09:48:00;;;;;;;49.72;18.40;;;;;;;;;;5016423;28;20454;-66
2022/01/15 09:50:28;;;;;;;58.00;20.33;;;;;;;;;;5006143;28;20920;-66
2022/01/15 09:52:54;;;;;;;74.97;22.00;;;;;;;;;;5018421;28;20057;-66
2022/01/15 09:55:21;;;;;;;94.13;21.27;;;;;;;;;;5023557;28;20080;-66
2022/01/15 09:57:48;;;;;;;82.25;20.55;;;;;;;;;;5010777;28;20053;-66
2022/01/15 10:00:17;;;;;;;79.95;21.48;;;;;;;;;;5022599;28;20047;-66
2022/01/15 10:02:45;;;;;;;59.05;20.42;;;;;;;;;;5008545;28;20365;-66
2022/01/15 10:05:12;;;;;;;53.33;21.27;;;;;;;;;;5024127;28;20046;-66
2022/01/15 10:07:53;;;;;;;87.95;20.95;;;;;;;;;;5018201;28;20064;-66
2022/01/15 10:10:22;;;;;;;72.97;22.63;;;;;;;;;;5027740;28;20049;-66
2022/01/15 10:12:48;;;;;;;87.57;23.17;;;;;;;;;;5011647;28;20049;-66
2022/01/15 10:15:15;;;;;;;66.43;23.67;;;;;;;;;;5016864;28;20502;-66
2022/01/15 10:17:43;;;;;;;100.13;26.13;;;;;;;;;;5017725;28;20052;-66
2022/01/15 10:20:21;;;;;;;57.22;22.40;;;;;;;;;;5016503;28;20405;-66
2022/01/15 10:22:49;;;;;;;63.83;21.73;;;;;;;;;;5021177;28;20050;-66
2022/01/15 10:25:21;;;;;;;67.75;23.40;;;;;;;;;;5012034;28;20517;-66
2022/01/15 10:27:50;;;;;;;71.47;23.63;;;;;;;;;;5017626;28;20046;-66
2022/01/15 10:30:26;;;;;;;67.45;21.38;;;;;;;;;;5022798;28;20653;-67
2022/01/15 10:32:57;;;;;;;68.93;20.75;;;;;;;;;;5016698;28;20424;-66
2022/01/15 10:35:25;;;;;;;48.65;18.23;;;;;;;;;;5019225;28;20056;-67
2022/01/15 10:37:58;;;;;;;60.50;18.60;;;;;;;;;;5010293;28;20045;-66
2022/01/15 10:40:44;;;;;;;66.55;20.17;;;;;;;;;;5014242;28;20045;-66
2022/01/15 10:43:12;;;;;;;65.43;18.52;;;;;;;;;;5007505;28;20079;-66
2022/01/15 10:45:52;;;;;;;59.10;19.10;;;;;;;;;;5022821;28;20498;-66
2022/01/15 10:48:27;;;;;;;60.20;20.38;;;;;;;;;;5006713;28;20128;-67
2022/01/15 10:50:57;;;;;;;58.33;17.77;;;;;;;;;;5019583;28;20049;-66
2022/01/15 10:53:36;;;;;;;56.15;17.25;;;;;;;;;;5009931;28;20144;-66
2022/01/15 10:56:03;;;;;;;78.25;18.13;;;;;;;;;;5007834;28;20457;-66
2022/01/15 10:58:29;;;;;;;55.22;15.65;;;;;;;;;;5016376;28;20054;-66
2022/01/15 11:00:56;;;;;;;38.78;16.35;;;;;;;;;;5009142;28;20052;-66
2022/01/15 11:03:24;;;;;;;54.50;15.98;;;;;;;;;;5020025;28;20465;-67
2022/01/15 11:05:51;;;;;;;59.22;17.15;;;;;;;;;;5018892;28;20053;-66
2022/01/15 11:08:27;;;;;;;50.72;16.00;;;;;;;;;;5013282;28;20050;-66
2022/01/15 11:11:02;;;;;;;46.45;17.25;;;;;;;;;;5018287;28;20061;-65
2022/01/15 11:13:33;;;;;;;48.75;17.02;;;;;;;;;;5012858;28;20049;-66
2022/01/15 11:16:00;;;;;;;45.38;16.65;;;;;;;;;;5020221;28;20052;-65
2022/01/15 11:18:28;;;;;;;51.05;15.82;;;;;;;;;;5012094;28;20068;-66
2022/01/15 11:20:56;;;;;;;39.30;15.57;;;;;;;;;;5014479;28;20045;-66
2022/01/15 11:23:23;;;;;;;47.00;15.95;;;;;;;;;;5012389;28;20160;-66
2022/01/15 11:25:50;;;;;;;50.45;17.35;;;;;;;;;;5023798;28;20057;-67
2022/01/15 11:28:24;;;;;;;61.50;17.85;;;;;;;;;;5022742;28;20041;-66
2022/01/15 11:30:55;;;;;;;46.95;17.27;;;;;;;;;;5000867;28;20873;-66
2022/01/15 11:33:22;;;;;;;52.75;18.20;;;;;;;;;;5023659;28;20072;-66
2022/01/15 11:35:48;;;;;;;55.22;18.13;;;;;;;;;;5008602;28;20053;-66
2022/01/15 11:38:37;;;;;;;56.70;17.30;;;;;;;;;;5013457;28;20771;-66
2022/01/15 11:41:03;;;;;;;54.95;17.65;;;;;;;;;;5005007;28;20052;-66
2022/01/15 11:43:33;;;;;;;46.38;17.20;;;;;;;;;;5030454;28;20490;-66
2022/01/15 11:46:21;;;;;;;47.55;18.98;;;;;;;;;;5017869;28;20049;-66
2022/01/15 11:48:48;;;;;;;49.47;17.65;;;;;;;;;;5025983;28;20397;-66
2022/01/15 11:51:14;;;;;;;53.25;19.02;;;;;;;;;;5012339;28;20057;-66
2022/01/15 11:53:54;;;;;;;44.55;17.88;;;;;;;;;;5019401;28;20045;-66
2022/01/15 11:56:25;;;;;;;49.28;16.42;;;;;;;;;;5017216;28;20048;-66
2022/01/15 11:58:52;;;;;;;52.05;17.60;;;;;;;;;;5022101;28;20045;-66
2022/01/15 12:01:35;;;;;;;51.17;16.63;;;;;;;;;;5024333;28;20041;-66
2022/01/15 12:04:20;;;;;;;43.88;17.75;;;;;;;;;;5014918;28;20045;-66
2022/01/15 12:07:05;;;;;;;36.35;15.65;;;;;;;;;;5020385;28;20052;-66
2022/01/15 12:09:32;;;;;;;44.67;16.88;;;;;;;;;;5024450;28;20487;-66
2022/01/15 12:11:59;;;;;;;44.08;17.08;;;;;;;;;;5021813;28;20227;-66
2022/01/15 12:14:44;;;;;;;40.40;17.33;;;;;;;;;;5032535;28;20048;-66
2022/01/15 12:17:28;;;;;;;36.80;15.27;;;;;;;;;;5012531;28;20287;-66
2022/01/15 12:19:55;;;;;;;52.35;19.92;;;;;;;;;;5021337;28;20056;-66
2022/01/15 12:22:43;;;;;;;54.88;19.70;;;;;;;;;;5015226;28;20524;-66
2022/01/15 12:25:19;;;;;;;54.90;19.35;;;;;;;;;;5025315;28;20056;-66
2022/01/15 12:27:56;;;;;;;50.83;19.95;;;;;;;;;;5017831;28;20052;-66
2022/01/15 12:30:23;;;;;;;53.30;19.55;;;;;;;;;;5023292;28;20056;-66
2022/01/15 12:32:51;;;;;;;56.60;20.55;;;;;;;;;;5007805;28;20306;-66
2022/01/15 12:35:21;;;;;;;67.80;20.92;;;;;;;;;;5026520;28;20049;-66
2022/01/15 12:38:04;;;;;;;50.45;19.27;;;;;;;;;;5027924;28;20056;-66
2022/01/15 12:40:34;;;;;;;53.08;20.20;;;;;;;;;;5017878;28;20056;-66
2022/01/15 12:43:05;;;;;;;71.18;22.23;;;;;;;;;;5025540;28;20053;-66
2022/01/15 12:45:31;;;;;;;61.53;21.85;;;;;;;;;;5013816;28;20601;-66
2022/01/15 12:47:58;;;;;;;60.78;20.45;;;;;;;;;;5017325;28;20038;-66
2022/01/15 12:50:25;;;;;;;70.32;22.00;;;;;;;;;;5020081;28;20053;-66
2022/01/15 12:53:01;;;;;;;79.35;23.33;;;;;;;;;;5020149;28;20053;-66
2022/01/15 12:55:28;;;;;;;71.22;21.45;;;;;;;;;;5026323;28;20049;-66
2022/01/15 12:57:55;;;;;;;65.90;21.95;;;;;;;;;;4996933;28;20502;-66
2022/01/15 13:00:22;;;;;;;63.90;20.25;;;;;;;;;;5017177;28;20294;-66
2022/01/15 13:02:54;;;;;;;62.90;22.03;;;;;;;;;;5014229;28;20050;-66
2022/01/15 13:05:20;;;;;;;69.90;22.05;;;;;;;;;;5032635;28;20282;-67
2022/01/15 13:07:51;;;;;;;63.85;22.55;;;;;;;;;;5015981;28;20875;-66
2022/01/15 13:10:28;;;;;;;84.57;25.58;;;;;;;;;;5025591;28;20049;-66
2022/01/15 13:12:54;;;;;;;64.28;23.60;;;;;;;;;;5020022;28;20041;-66
2022/01/15 13:15:25;;;;;;;77.50;22.65;;;;;;;;;;5015611;28;20418;-66
2022/01/15 13:17:52;;;;;;;74.55;24.33;;;;;;;;;;5020054;28;20552;-66
2022/01/15 13:20:27;;;;;;;76.82;24.70;;;;;;;;;;5023960;28;20049;-67
2022/01/15 13:22:54;;;;;;;68.90;23.90;;;;;;;;;;5022558;28;20049;-65
2022/01/15 13:25:21;;;;;;;65.53;23.05;;;;;;;;;;5021760;28;20061;-65
2022/01/15 13:27:47;;;;;;;62.75;21.45;;;;;;;;;;5008917;28;20055;-66
2022/01/15 13:30:14;;;;;;;51.30;20.80;;;;;;;;;;5024788;28;20041;-66
2022/01/15 13:32:57;;;;;;;52.53;20.25;;;;;;;;;;5012206;28;20464;-65
2022/01/15 13:35:27;;;;;;;55.65;20.80;;;;;;;;;;5027348;28;20046;-66
2022/01/15 13:37:55;;;;;;;52.03;20.80;;;;;;;;;;5009043;28;20041;-66
2022/01/15 13:40:26;;;;;;;57.38;20.45;;;;;;;;;;5022136;28;20249;-66
2022/01/15 13:42:52;;;;;;;53.65;21.02;;;;;;;;;;5009213;28;20060;-66
2022/01/15 13:45:18;;;;;;;54.85;21.33;;;;;;;;;;5027381;28;20491;-65
2022/01/15 13:47:45;;;;;;;57.85;22.08;;;;;;;;;;5018285;28;20054;-66
2022/01/15 13:53:45;;;;;;;67.63;22.25;;;;;;;;;;5015561;28;20053;-66
2022/01/15 13:56:16;;;;;;;56.85;22.52;;;;;;;;;;4995593;28;20052;-66
2022/01/15 13:58:42;;;;;;;57.70;21.60;;;;;;;;;;5023119;28;20465;-66
2022/01/15 14:01:16;;;;;;;50.97;19.65;;;;;;;;;;5024522;28;20072;-66
2022/01/15 14:03:42;;;;;;;50.78;22.10;;;;;;;;;;5018953;28;20461;-66
2022/01/15 14:06:09;;;;;;;60.15;21.98;;;;;;;;;;5022088;28;20045;-65
2022/01/15 14:08:35;;;;;;;70.35;23.55;;;;;;;;;;5010397;28;20053;-66
2022/01/15 14:11:07;;;;;;;57.75;22.27;;;;;;;;;;5018086;28;20440;-66
2022/01/15 14:13:34;;;;;;;56.40;22.27;;;;;;;;;;5011404;28;20055;-66
2022/01/15 14:16:00;;;;;;;61.13;24.85;;;;;;;;;;5020586;28;20053;-65
2022/01/15 14:18:30;;;;;;;58.88;22.15;;;;;;;;;;5006874;28;20157;-65
2022/01/15 14:23:31;;;;;;;63.08;22.35;;;;;;;;;;5012388;28;20052;-65
2022/01/15 14:25:57;;;;;;;60.45;22.80;;;;;;;;;;5026145;28;20049;-66
2022/01/15 14:28:24;;;;;;;52.60;21.17;;;;;;;;;;5018412;28;20052;-65
2022/01/15 14:30:53;;;;;;;53.50;21.35;;;;;;;;;;5012288;28;20046;-65
2022/01/15 14:33:20;;;;;;;60.60;23.45;;;;;;;;;;5017452;28;20045;-65
2022/01/15 14:35:47;;;;;;;56.85;22.92;;;;;;;;;;5020866;28;20045;-65
2022/01/15 14:38:13;;;;;;;63.47;23.77;;;;;;;;;;5024685;28;20141;-66
2022/01/15 14:40:41;;;;;;;58.80;24.70;;;;;;;;;;5030072;28;20049;-66
2022/01/15 14:43:29;;;;;;;52.65;21.20;;;;;;;;;;5018435;28;20061;-65
2022/01/15 14:45:56;;;;;;;;;;;;;;;;;;5026135;28;20061;-66
2022/01/15 14:48:23;;;;;;;66.30;21.38;;;;;;;;;;5013946;28;20190;-65
2022/01/15 14:50:52;;;;;;;44.80;20.15;;;;;;;;;;5030288;28;20387;-66
2022/01/15 14:53:18;;;;;;;45.08;20.88;;;;;;;;;;5019148;28;20057;-65